createdAt,value
2018-10-02T00:02:24.802Z,101775.65
2018-10-02T00:04:54.250Z,101782.95
2018-10-02T00:07:23.680Z,101783.48
2018-10-02T00:09:52.876Z,101786.52
2018-10-02T00:12:27.138Z,101785.14
2018-10-02T00:14:56.045Z,101774.09
2018-10-02T00:17:25.206Z,101777.84
2018-10-02T00:19:53.986Z,101772.45
2018-10-02T00:22:22.864Z,101765.44
2018-10-02T00:24:51.788Z,101776.19
2018-10-02T00:27:20.773Z,101779.47
2018-10-02T00:29:49.681Z,101784.31
2018-10-02T00:32:18.971Z,101781.11
2018-10-02T00:34:47.616Z,101770.56
2018-10-02T00:37:17.176Z,101774.35
2018-10-02T00:39:45.953Z,101769.73
2018-10-02T00:42:15.367Z,101757.08
2018-10-02T00:44:44.673Z,101760.79
2018-10-02T00:47:13.408Z,101762.37
2018-10-02T00:49:42.795Z,101760.73
2018-10-02T00:52:12.261Z,101755.36
2018-10-02T00:54:41.310Z,101742.69
2018-10-02T00:57:10.211Z,101752.95
2018-10-02T00:59:39.130Z,101738.14
2018-10-02T01:02:08.023Z,101733.29
2018-10-02T01:04:36.994Z,101724.96
2018-10-02T01:07:06.018Z,101726.58
2018-10-02T01:09:34.932Z,101729.02
2018-10-02T01:12:04.125Z,101736.34
2018-10-02T01:14:33.017Z,101736.34
2018-10-02T01:17:02.223Z,101732.32
2018-10-02T01:19:31.307Z,101729.67
2018-10-02T01:22:00.245Z,101720.52
2018-10-02T01:24:29.038Z,101719.47
2018-10-02T01:26:57.869Z,101690.91
2018-10-02T01:29:26.759Z,101695.28
2018-10-02T01:31:55.539Z,101687.50
2018-10-02T01:34:24.423Z,101687.77
2018-10-02T01:36:53.703Z,101684.31
2018-10-02T01:39:22.538Z,101673.25
2018-10-02T01:41:51.750Z,101673.83
2018-10-02T01:44:20.543Z,101667.09
2018-10-02T01:46:49.399Z,101665.75
2018-10-02T01:49:18.258Z,101661.72
2018-10-02T01:51:47.095Z,101654.47
2018-10-02T01:54:16.041Z,101658.23
2018-10-02T01:56:44.909Z,101653.38
2018-10-02T01:59:14.058Z,101646.11
2018-10-02T02:01:43.361Z,101649.89
2018-10-02T02:04:12.704Z,101643.14
2018-10-02T02:06:41.781Z,101629.91
2018-10-02T02:09:11.180Z,101629.39
2018-10-02T02:11:39.996Z,101628.03
2018-10-02T02:14:08.959Z,101615.12
2018-10-02T02:16:37.902Z,101615.91
2018-10-02T02:19:06.794Z,101602.71
2018-10-02T02:21:35.840Z,101598.68
2018-10-02T02:24:05.161Z,101584.12
2018-10-02T02:26:34.064Z,101580.88
2018-10-02T02:29:02.938Z,101583.05
2018-10-02T02:31:31.861Z,101584.66
2018-10-02T02:34:00.684Z,101585.77
2018-10-02T02:36:29.930Z,101576.59
2018-10-02T02:38:58.841Z,101578.22
2018-10-02T02:41:27.862Z,101579.84
2018-10-02T02:43:56.814Z,101582.81
2018-10-02T02:46:25.565Z,101579.61
2018-10-02T02:48:59.619Z,101570.45
2018-10-02T02:51:31.593Z,101576.66
2018-10-02T02:54:00.820Z,101560.75
2018-10-02T02:56:30.450Z,101567.77
2018-10-02T02:59:00.232Z,101567.77
2018-10-02T03:01:29.725Z,101572.09
2018-10-02T03:03:59.095Z,101562.67
2018-10-02T03:06:27.910Z,101554.03
2018-10-02T03:08:56.826Z,101536.50
2018-10-02T03:11:25.881Z,101555.94
2018-10-02T03:13:54.678Z,101548.09
2018-10-02T03:16:23.598Z,101542.19
2018-10-02T03:18:52.516Z,101531.41
2018-10-02T03:21:21.335Z,101515.47
2018-10-02T03:23:50.178Z,101504.44
2018-10-02T03:26:18.985Z,101505.23
2018-10-02T03:28:47.978Z,101508.45
2018-10-02T03:31:16.999Z,101500.91
2018-10-02T03:33:46.296Z,101494.72
2018-10-02T03:36:15.408Z,101489.84
2018-10-02T03:38:45.312Z,101488.50
2018-10-02T03:41:14.795Z,101478.78
2018-10-02T03:43:44.296Z,101476.08
2018-10-02T03:46:13.777Z,101471.52
2018-10-02T03:48:42.735Z,101473.11
2018-10-02T03:51:11.902Z,101479.61
2018-10-02T03:53:41.191Z,101466.64
2018-10-02T03:56:10.343Z,101474.45
2018-10-02T03:58:39.168Z,101460.17
2018-10-02T04:01:08.579Z,101462.31
2018-10-02T04:03:37.732Z,101465.84
2018-10-02T04:06:09.484Z,101466.08
2018-10-02T04:08:38.564Z,101467.70
2018-10-02T04:11:07.734Z,101466.35
2018-10-02T04:13:36.801Z,101467.15
2018-10-02T04:16:05.823Z,101459.05
2018-10-02T04:18:35.061Z,101456.11
2018-10-02T04:21:05.656Z,101445.55
2018-10-02T04:23:35.179Z,101439.36
2018-10-02T04:26:04.480Z,101442.06
2018-10-02T04:28:33.431Z,101436.94
2018-10-02T04:31:02.330Z,101434.23
2018-10-02T04:33:31.221Z,101425.30
2018-10-02T04:36:00.373Z,101424.78
2018-10-02T04:38:29.860Z,101414.51
2018-10-02T04:40:59.505Z,101420.45
2018-10-02T04:43:28.474Z,101406.69
2018-10-02T04:45:57.941Z,101396.69
2018-10-02T04:48:26.782Z,101396.69
2018-10-02T04:50:55.583Z,101394.55
2018-10-02T04:53:25.122Z,101388.34
2018-10-02T04:55:54.193Z,101383.19
2018-10-02T04:58:23.376Z,101372.95
2018-10-02T05:00:52.903Z,101369.18
2018-10-02T05:03:21.752Z,101362.70
2018-10-02T05:05:50.626Z,101360.80
2018-10-02T05:08:19.768Z,101358.62
2018-10-02T05:10:48.811Z,101360.80
2018-10-02T05:13:18.051Z,101368.06
2018-10-02T05:15:47.086Z,101365.91
2018-10-02T05:18:16.088Z,101361.86
2018-10-02T05:20:46.050Z,101351.34
2018-10-02T05:23:15.225Z,101340.54
2018-10-02T05:25:44.018Z,101346.46
2018-10-02T05:28:13.137Z,101338.64
2018-10-02T05:30:41.942Z,101334.31
2018-10-02T05:33:10.775Z,101323.52
2018-10-02T05:35:39.582Z,101311.13
2018-10-02T05:38:09.216Z,101314.06
2018-10-02T05:40:39.253Z,101311.67
2018-10-02T05:43:09.184Z,101302.77
2018-10-02T05:45:38.807Z,101296.53
2018-10-02T05:48:09.713Z,101295.19
2018-10-02T05:50:38.613Z,101292.48
2018-10-02T05:53:08.414Z,101288.71
2018-10-02T05:55:37.275Z,101280.05
2018-10-02T05:58:06.231Z,101284.65
2018-10-02T06:00:35.286Z,101281.67
2018-10-02T06:03:04.173Z,101277.63
2018-10-02T06:05:35.130Z,101270.88
2018-10-02T06:08:04.138Z,101263.61
2018-10-02T06:10:35.518Z,101254.67
2018-10-02T06:13:04.301Z,101246.84
2018-10-02T06:15:33.502Z,101236.55
2018-10-02T06:18:02.398Z,101238.98
2018-10-02T06:20:31.362Z,101249.53
2018-10-02T06:23:00.486Z,101248.45
2018-10-02T06:25:29.577Z,101237.09
2018-10-02T06:27:58.422Z,101225.73
2018-10-02T06:30:27.483Z,101235.17
2018-10-02T06:32:56.436Z,101239.49
2018-10-02T06:35:25.942Z,101221.66
2018-10-02T06:37:54.966Z,101232.73
2018-10-02T06:40:23.919Z,101232.71
2018-10-02T06:42:53.683Z,101234.84
2018-10-02T06:45:22.779Z,101238.08
2018-10-02T06:47:51.980Z,101249.38
2018-10-02T06:50:20.837Z,101248.02
2018-10-02T06:52:49.825Z,101252.33
2018-10-02T06:55:18.707Z,101243.42
2018-10-02T06:57:48.159Z,101232.33
2018-10-02T07:00:17.244Z,101233.87
2018-10-02T07:02:46.526Z,101226.61
2018-10-02T07:05:16.678Z,101210.92
2018-10-02T07:07:46.741Z,101197.95
2018-10-02T07:10:18.030Z,101193.88
2018-10-02T07:12:48.507Z,101194.16
2018-10-02T07:15:20.067Z,101192.52
2018-10-02T07:17:49.980Z,101198.94
2018-10-02T07:20:20.202Z,101187.84
2018-10-02T07:22:48.966Z,101172.98
2018-10-02T07:25:17.942Z,101185.93
2018-10-02T07:27:47.043Z,101187.80
2018-10-02T07:30:16.191Z,101186.42
2018-10-02T07:32:45.122Z,101180.20
2018-10-02T07:35:14.018Z,101185.05
2018-10-02T07:37:43.352Z,101184.73
2018-10-02T07:40:12.550Z,101177.42
2018-10-02T07:42:47.794Z,101167.12
2018-10-02T07:45:16.901Z,101158.73
2018-10-02T07:47:45.722Z,101147.33
2018-10-02T07:50:14.529Z,101143.25
2018-10-02T07:52:43.992Z,101134.34
2018-10-02T07:55:12.835Z,101137.58
2018-10-02T07:57:41.670Z,101137.34
2018-10-02T08:00:11.170Z,101140.28
2018-10-02T08:02:40.370Z,101135.14
2018-10-02T08:05:09.082Z,101132.68
2018-10-02T08:07:38.285Z,101124.55
2018-10-02T08:10:07.074Z,101136.16
2018-10-02T08:12:35.832Z,101130.19
2018-10-02T08:15:04.737Z,101114.50
2018-10-02T08:17:34.172Z,101123.67
2018-10-02T08:20:03.819Z,101115.23
2018-10-02T08:22:32.730Z,101110.86
2018-10-02T08:25:01.714Z,101119.23
2018-10-02T08:27:30.793Z,101100.84
2018-10-02T08:29:59.571Z,101100.55
2018-10-02T08:32:28.941Z,101100.98
2018-10-02T08:34:57.779Z,101096.07
2018-10-02T08:37:26.652Z,101103.09
2018-10-02T08:39:55.852Z,101097.63
2018-10-02T08:42:24.708Z,101109.77
2018-10-02T08:44:53.493Z,101087.80
2018-10-02T08:47:22.294Z,101085.36
2018-10-02T08:49:57.287Z,101084.77
2018-10-02T08:52:26.377Z,101092.58
2018-10-02T08:54:55.138Z,101083.91
2018-10-02T08:57:23.976Z,101084.70
2018-10-02T08:59:52.778Z,101075.13
2018-10-02T09:02:21.525Z,101074.83
2018-10-02T09:04:50.297Z,101068.89
2018-10-02T09:07:19.279Z,101069.91
2018-10-02T09:09:48.330Z,101060.11
2018-10-02T09:12:17.431Z,101064.13
2018-10-02T09:14:46.303Z,101066.47
2018-10-02T09:17:15.690Z,101060.72
2018-10-02T09:19:44.459Z,101051.13
2018-10-02T09:22:13.213Z,101052.94
2018-10-02T09:24:41.990Z,101050.75
2018-10-02T09:27:10.824Z,101051.20
2018-10-02T09:29:44.680Z,101053.86
2018-10-02T09:32:18.502Z,101046.45
2018-10-02T09:34:52.633Z,101043.47
2018-10-02T09:37:26.637Z,101035.27
2018-10-02T09:40:00.688Z,101036.55
2018-10-02T09:42:34.635Z,101041.88
2018-10-02T09:45:03.615Z,101042.88
2018-10-02T09:47:33.031Z,101040.66
2018-10-02T09:50:01.773Z,101039.39
2018-10-02T09:52:30.568Z,101036.41
2018-10-02T09:54:59.631Z,101024.17
2018-10-02T09:57:28.461Z,101031.65
2018-10-02T09:59:57.715Z,101039.38
2018-10-02T10:02:31.819Z,101031.95
2018-10-02T10:05:00.687Z,101031.25
2018-10-02T10:07:29.741Z,101030.00
2018-10-02T10:09:58.622Z,101032.52
2018-10-02T10:12:27.782Z,101034.21
2018-10-02T10:14:56.899Z,101021.08
2018-10-02T10:17:26.543Z,101019.37
2018-10-02T10:19:55.447Z,101008.36
2018-10-02T10:22:24.555Z,101012.27
2018-10-02T10:24:53.567Z,101017.53
2018-10-02T10:27:25.630Z,101024.89
2018-10-02T10:29:54.779Z,101016.49
2018-10-02T10:32:23.505Z,101013.87
2018-10-02T10:34:52.270Z,101020.27
2018-10-02T10:37:21.045Z,101023.40
2018-10-02T10:39:50.451Z,101022.75
2018-10-02T10:42:19.289Z,101024.41
2018-10-02T10:44:48.356Z,101021.52
2018-10-02T10:47:17.144Z,101020.83
2018-10-02T10:49:45.920Z,101015.02
2018-10-02T10:52:14.898Z,101012.25
2018-10-02T10:54:54.221Z,101001.58
2018-10-02T10:57:23.632Z,101008.37
2018-10-02T10:59:52.375Z,101019.11
2018-10-02T11:02:21.154Z,101004.33
2018-10-02T11:04:50.249Z,101007.17
2018-10-02T11:07:19.594Z,101001.86
2018-10-02T11:09:48.370Z,101004.99
2018-10-02T11:12:17.152Z,101012.83
2018-10-02T11:14:46.299Z,101027.08
2018-10-02T11:17:15.167Z,101017.66
2018-10-02T11:19:44.599Z,101021.36
2018-10-02T11:22:13.411Z,101028.37
2018-10-02T11:24:42.246Z,101020.47
2018-10-02T11:27:13.355Z,101024.48
2018-10-02T11:29:42.727Z,101020.91
2018-10-02T11:32:11.434Z,101024.86
2018-10-02T11:34:40.188Z,101028.11
2018-10-02T11:37:08.975Z,101015.50
2018-10-02T11:39:37.778Z,101013.66
2018-10-02T11:42:06.757Z,101017.90
2018-10-02T11:44:36.683Z,101015.11
2018-10-02T11:47:05.427Z,101017.95
2018-10-02T11:49:34.517Z,101017.43
2018-10-02T11:52:03.322Z,101019.30
2018-10-02T11:54:33.000Z,101007.72
2018-10-02T11:57:02.183Z,101012.77
2018-10-02T11:59:30.980Z,101009.33
2018-10-02T12:02:00.332Z,101007.19
2018-10-02T12:04:29.103Z,101000.41
2018-10-02T12:06:58.099Z,100994.42
2018-10-02T12:09:27.163Z,100996.34
2018-10-02T12:11:56.216Z,100992.50
2018-10-02T12:14:25.784Z,100998.94
2018-10-02T12:16:54.707Z,101005.41
2018-10-02T12:19:23.553Z,100998.67
2018-10-02T12:21:52.984Z,101001.48
2018-10-02T12:24:21.763Z,100997.48
2018-10-02T12:26:50.564Z,100997.38
2018-10-02T12:29:19.979Z,101001.23
2018-10-02T12:31:48.776Z,100992.64
2018-10-02T12:34:20.512Z,100979.11
2018-10-02T12:36:49.570Z,100985.34
2018-10-02T12:39:18.615Z,100985.09
2018-10-02T12:41:48.246Z,100979.47
2018-10-02T12:44:17.038Z,100985.73
2018-10-02T12:46:45.839Z,100985.87
2018-10-02T12:49:14.716Z,100985.70
2018-10-02T12:51:43.745Z,100981.77
2018-10-02T12:54:12.483Z,100973.23
2018-10-02T12:56:41.714Z,100980.83
2018-10-02T12:59:10.484Z,100975.47
2018-10-02T13:01:39.577Z,100979.99
2018-10-02T13:04:08.520Z,100972.05
2018-10-02T13:06:37.424Z,100977.73
2018-10-02T13:09:08.621Z,100983.70
2018-10-02T13:11:43.916Z,100981.20
2018-10-02T13:14:12.882Z,100991.55
2018-10-02T13:16:42.622Z,101001.83
2018-10-02T13:19:11.275Z,101002.03
2018-10-02T13:21:40.046Z,101006.04
2018-10-02T13:24:09.069Z,101006.09
2018-10-02T13:26:37.854Z,101008.71
2018-10-02T13:29:07.057Z,101003.56
2018-10-02T13:31:35.956Z,101002.64
2018-10-02T13:34:05.283Z,101004.48
2018-10-02T13:36:34.275Z,101016.52
2018-10-02T13:39:03.223Z,101011.53
2018-10-02T13:41:32.290Z,101018.81
2018-10-02T13:44:01.562Z,101025.72
2018-10-02T13:46:30.467Z,101034.29
2018-10-02T13:48:59.506Z,101030.08
2018-10-02T13:51:28.596Z,101022.42
2018-10-02T13:53:57.341Z,101031.45
2018-10-02T13:56:26.475Z,101023.45
2018-10-02T13:58:55.323Z,101027.15
2018-10-02T14:01:24.522Z,101029.92
2018-10-02T14:03:53.284Z,101038.02
2018-10-02T14:06:22.339Z,101032.86
2018-10-02T14:08:51.177Z,101048.92
2018-10-02T14:11:20.450Z,101043.11
2018-10-02T14:13:49.223Z,101050.35
2018-10-02T14:16:17.975Z,101046.00
2018-10-02T14:18:46.872Z,101057.58
2018-10-02T14:21:15.890Z,101078.90
2018-10-02T14:23:44.827Z,101078.09
2018-10-02T14:26:14.361Z,101086.53
2018-10-02T14:28:43.267Z,101097.06
2018-10-02T14:31:12.441Z,101088.70
2018-10-02T14:33:41.495Z,101098.58
2018-10-02T14:36:10.658Z,101102.61
2018-10-02T14:38:39.434Z,101111.13
2018-10-02T14:41:08.303Z,101109.68
2018-10-02T14:43:37.768Z,101118.63
2018-10-02T14:46:06.675Z,101115.49
2018-10-02T14:48:35.578Z,101121.72
2018-10-02T14:51:04.381Z,101123.48
2018-10-02T14:53:33.508Z,101126.16
2018-10-02T14:56:02.336Z,101134.59
2018-10-02T14:58:31.079Z,101146.70
2018-10-02T15:01:00.160Z,101146.80
2018-10-02T15:03:29.009Z,101154.65
2018-10-02T15:05:58.197Z,101149.06
2018-10-02T15:08:27.350Z,101156.52
2018-10-02T15:10:56.213Z,101158.06
2018-10-02T15:13:25.596Z,101163.85
2018-10-02T15:15:54.364Z,101165.48
2018-10-02T15:18:23.117Z,101174.00
2018-10-02T15:20:52.234Z,101174.48
2018-10-02T15:23:21.045Z,101177.06
2018-10-02T15:25:49.885Z,101189.58
2018-10-02T15:28:18.692Z,101186.45
2018-10-02T15:30:49.053Z,101189.51
2018-10-02T15:33:18.203Z,101190.01
2018-10-02T15:35:47.382Z,101179.17
2018-10-02T15:38:16.771Z,101179.59
2018-10-02T15:40:45.809Z,101188.02
2018-10-02T15:43:14.594Z,101186.82
2018-10-02T15:45:43.372Z,101192.12
2018-10-02T15:48:12.578Z,101203.11
2018-10-02T15:50:41.386Z,101200.88
2018-10-02T15:53:10.428Z,101202.02
2018-10-02T15:55:39.579Z,101199.84
2018-10-02T15:58:08.478Z,101209.14
2018-10-02T16:00:43.832Z,101209.46
2018-10-02T16:03:12.895Z,101212.19
2018-10-02T16:05:41.874Z,101219.34
2018-10-02T16:08:10.669Z,101211.23
2018-10-02T16:10:39.907Z,101217.59
2018-10-02T16:13:09.360Z,101214.12
2018-10-02T16:15:38.178Z,101217.67
2018-10-02T16:18:07.093Z,101218.86
2018-10-02T16:20:35.874Z,101225.91
2018-10-02T16:23:04.915Z,101224.78
2018-10-02T16:25:34.341Z,101231.45
2018-10-02T16:28:03.187Z,101236.81
2018-10-02T16:30:32.194Z,101237.29
2018-10-02T16:33:00.993Z,101236.58
2018-10-02T16:35:30.400Z,101245.86
2018-10-02T16:37:59.929Z,101240.73
2018-10-02T16:40:28.982Z,101249.81
2018-10-02T16:42:57.757Z,101245.66
2018-10-02T16:45:27.212Z,101248.03
2018-10-02T16:47:56.030Z,101253.94
2018-10-02T16:50:25.068Z,101261.47
2018-10-02T16:52:53.822Z,101262.39
2018-10-02T16:55:22.976Z,101254.86
2018-10-02T16:57:53.209Z,101259.66
2018-10-02T17:00:22.425Z,101263.09
2018-10-02T17:02:51.844Z,101265.00
2018-10-02T17:05:22.118Z,101273.55
2018-10-02T17:07:50.955Z,101277.77
2018-10-02T17:10:21.272Z,101281.92
2018-10-02T17:12:50.725Z,101284.17
2018-10-02T17:15:20.978Z,101285.66
2018-10-02T17:17:49.715Z,101281.01
2018-10-02T17:20:18.566Z,101284.50
2018-10-02T17:22:47.822Z,101286.69
2018-10-02T17:25:17.183Z,101275.13
2018-10-02T17:27:45.967Z,101276.94
2018-10-02T17:30:15.035Z,101275.95
2018-10-02T17:32:43.901Z,101285.09
2018-10-02T17:35:13.767Z,101301.80
2018-10-02T17:37:44.182Z,101304.20
2018-10-02T17:40:12.987Z,101303.95
2018-10-02T17:42:42.075Z,101298.77
2018-10-02T17:45:11.557Z,101301.84
2018-10-02T17:47:41.356Z,101312.83
2018-10-02T17:50:11.426Z,101313.73
2018-10-02T17:52:40.998Z,101311.91
2018-10-02T17:55:11.277Z,101303.74
2018-10-02T17:57:40.606Z,101305.95
2018-10-02T18:00:09.726Z,101313.23
2018-10-02T18:02:38.929Z,101313.59
2018-10-02T18:05:08.072Z,101317.73
2018-10-02T18:07:39.315Z,101310.20
2018-10-02T18:10:11.049Z,101314.64
2018-10-02T18:12:41.296Z,101310.62
2018-10-02T18:15:10.111Z,101319.39
2018-10-02T18:17:39.277Z,101325.98
2018-10-02T18:20:08.748Z,101326.34
2018-10-02T18:22:37.583Z,101336.45
2018-10-02T18:25:06.772Z,101342.55
2018-10-02T18:27:35.685Z,101338.05
2018-10-02T18:30:06.017Z,101330.05
2018-10-02T18:32:34.768Z,101320.38
2018-10-02T18:35:03.561Z,101328.09
2018-10-02T18:37:32.736Z,101333.16
2018-10-02T18:40:02.130Z,101334.44
2018-10-02T18:42:30.983Z,101327.78
2018-10-02T18:45:00.155Z,101342.23
2018-10-02T18:47:29.153Z,101350.52
2018-10-02T18:49:58.956Z,101346.53
2018-10-02T18:52:27.744Z,101349.30
2018-10-02T18:54:56.763Z,101353.45
2018-10-02T18:57:25.786Z,101352.66
2018-10-02T18:59:54.752Z,101353.20
2018-10-02T19:02:23.819Z,101359.49
2018-10-02T19:04:52.874Z,101359.84
2018-10-02T19:07:21.707Z,101367.77
2018-10-02T19:09:50.458Z,101373.23
2018-10-02T19:12:21.219Z,101372.70
2018-10-02T19:14:50.035Z,101369.86
2018-10-02T19:17:18.888Z,101378.64
2018-10-02T19:19:52.683Z,101385.95
2018-10-02T19:22:21.850Z,101388.97
2018-10-02T19:24:51.073Z,101396.05
2018-10-02T19:27:19.933Z,101393.91
2018-10-02T19:29:52.807Z,101394.44
2018-10-02T19:32:21.986Z,101388.75
2018-10-02T19:34:50.799Z,101398.55
2018-10-02T19:37:24.999Z,101400.72
2018-10-02T19:39:54.311Z,101406.98
2018-10-02T19:42:23.437Z,101415.12
2018-10-02T19:44:52.218Z,101404.23
2018-10-02T19:47:21.040Z,101401.30
2018-10-02T19:49:50.276Z,101401.86
2018-10-02T19:52:19.332Z,101415.38
2018-10-02T19:54:49.543Z,101416.52
2018-10-02T19:57:19.374Z,101416.29
2018-10-02T19:59:48.202Z,101413.88
2018-10-02T20:02:17.233Z,101419.83
2018-10-02T20:04:46.355Z,101430.15
2018-10-02T20:07:15.470Z,101429.13
2018-10-02T20:09:44.193Z,101425.92
2018-10-02T20:12:13.002Z,101426.45
2018-10-02T20:14:41.722Z,101419.17
2018-10-02T20:17:10.763Z,101417.30
2018-10-02T20:19:39.987Z,101419.55
2018-10-02T20:22:10.881Z,101415.78
2018-10-02T20:24:40.303Z,101415.52
2018-10-02T20:27:09.104Z,101428.81
2018-10-02T20:29:38.291Z,101434.27
2018-10-02T20:32:07.257Z,101440.81
2018-10-02T20:34:36.077Z,101431.92
2018-10-02T20:37:04.965Z,101428.08
2018-10-02T20:39:34.693Z,101422.16
2018-10-02T20:42:04.207Z,101426.23
2018-10-02T20:44:33.298Z,101428.68
2018-10-02T20:47:02.118Z,101429.90
2018-10-02T20:49:31.092Z,101425.04
2018-10-02T20:51:59.853Z,101432.08
2018-10-02T20:54:29.401Z,101425.66
2018-10-02T20:56:58.215Z,101434.19
2018-10-02T20:59:27.517Z,101436.13
2018-10-02T21:01:56.668Z,101431.03
2018-10-02T21:04:25.464Z,101431.59
2018-10-02T21:06:54.543Z,101438.63
2018-10-02T21:09:23.358Z,101442.20
2018-10-02T21:11:52.148Z,101435.72
2018-10-02T21:14:21.263Z,101435.51
2018-10-02T21:16:50.344Z,101440.34
2018-10-02T21:19:19.365Z,101431.68
2018-10-02T21:21:48.444Z,101436.04
2018-10-02T21:24:17.519Z,101435.75
2018-10-02T21:26:46.348Z,101443.87
2018-10-02T21:29:15.173Z,101452.88
2018-10-02T21:31:44.771Z,101438.83
2018-10-02T21:34:13.791Z,101453.23
2018-10-02T21:36:42.576Z,101454.58
2018-10-02T21:39:11.726Z,101456.81
2018-10-02T21:41:41.140Z,101459.02
2018-10-02T21:44:09.944Z,101460.37
2018-10-02T21:46:39.246Z,101456.63
2018-10-02T21:49:08.647Z,101451.26
2018-10-02T21:51:37.706Z,101456.70
2018-10-02T21:54:07.008Z,101455.66
2018-10-02T21:56:35.830Z,101458.93
2018-10-02T21:59:04.934Z,101455.77
2018-10-02T22:01:33.767Z,101460.91
2018-10-02T22:04:02.584Z,101462.55
2018-10-02T22:06:31.357Z,101456.33
2018-10-02T22:09:00.332Z,101457.42
2018-10-02T22:11:29.158Z,101456.35
2018-10-02T22:13:57.908Z,101465.83
2018-10-02T22:16:26.754Z,101462.88
2018-10-02T22:18:56.615Z,101462.61
2018-10-02T22:21:26.284Z,101451.27
2018-10-02T22:23:56.070Z,101463.19
2018-10-02T22:26:25.863Z,101455.12
2018-10-02T22:28:56.183Z,101451.83
2018-10-02T22:31:25.605Z,101459.47
2018-10-02T22:33:54.460Z,101461.59
2018-10-02T22:36:23.491Z,101473.22
2018-10-02T22:38:52.249Z,101463.22
2018-10-02T22:41:21.751Z,101466.72
2018-10-02T22:43:50.810Z,101463.98
2018-10-02T22:46:19.627Z,101465.59
2018-10-02T22:48:48.452Z,101471.00
2018-10-02T22:51:17.932Z,101464.78
2018-10-02T22:53:46.710Z,101467.25
2018-10-02T22:56:15.530Z,101462.70
2018-10-02T22:58:44.698Z,101464.88
2018-10-02T23:01:13.666Z,101470.04
2018-10-02T23:03:42.511Z,101467.61
2018-10-02T23:06:11.331Z,101478.16
2018-10-02T23:08:40.613Z,101475.16
2018-10-02T23:11:09.399Z,101478.43
2018-10-02T23:13:38.255Z,101475.70
2018-10-02T23:16:07.397Z,101475.44
2018-10-02T23:18:36.197Z,101479.20
2018-10-02T23:21:05.193Z,101471.66
2018-10-02T23:23:34.486Z,101475.96
2018-10-02T23:26:04.237Z,101487.03
2018-10-02T23:28:33.354Z,101482.40
2018-10-02T23:31:02.184Z,101481.60
2018-10-02T23:33:31.363Z,101487.55
2018-10-02T23:36:00.212Z,101491.85
2018-10-02T23:38:29.647Z,101481.88
2018-10-02T23:40:58.584Z,101484.56
2018-10-02T23:43:27.311Z,101481.56
2018-10-02T23:45:56.519Z,101486.69
2018-10-02T23:48:25.641Z,101490.75
2018-10-02T23:50:54.691Z,101490.75
2018-10-02T23:53:23.476Z,101492.35
2018-10-02T23:55:52.645Z,101490.46
2018-10-02T23:58:21.499Z,101492.39
